sensor_id;sensor_type;location;lat;lon;timestamp;pressure;altitude;pressure_sealevel;temperature;humidity
62126;BME280;48112;53.282;6.150;2022-08-21T00:00:20;101684.06;;;18.85;63.37
62126;BME280;48112;53.282;6.150;2022-08-21T00:01:26;101694.19;;;18.81;63.44
62126;BME280;48112;53.282;6.150;2022-08-21T00:02:28;101687.53;;;18.79;63.58
62126;BME280;48112;53.282;6.150;2022-08-21T00:03:32;101688.28;;;18.79;63.43
62126;BME280;48112;53.282;6.150;2022-08-21T00:04:34;101682.78;;;18.76;63.83
62126;BME280;48112;53.282;6.150;2022-08-21T00:05:43;101684.78;;;18.79;63.65
62126;BME280;48112;53.282;6.150;2022-08-21T00:06:45;101687.91;;;18.77;63.72
62126;BME280;48112;53.282;6.150;2022-08-21T00:07:48;101687.09;;;18.77;63.45
62126;BME280;48112;53.282;6.150;2022-08-21T00:08:50;101683.19;;;18.78;63.70
62126;BME280;48112;53.282;6.150;2022-08-21T00:09:54;101681.69;;;18.80;63.60
62126;BME280;48112;53.282;6.150;2022-08-21T00:10:56;101692.63;;;18.80;63.33
62126;BME280;48112;53.282;6.150;2022-08-21T00:11:59;101687.16;;;18.80;63.35
62126;BME280;48112;53.282;6.150;2022-08-21T00:13:02;101683.16;;;18.74;63.36
62126;BME280;48112;53.282;6.150;2022-08-21T00:14:09;101684.66;;;18.68;63.62
62126;BME280;48112;53.282;6.150;2022-08-21T00:15:16;101680.28;;;18.60;64.13
62126;BME280;48112;53.282;6.150;2022-08-21T00:16:21;101677.06;;;18.51;64.21
62126;BME280;48112;53.282;6.150;2022-08-21T00:17:23;101676.25;;;18.51;64.53
62126;BME280;48112;53.282;6.150;2022-08-21T00:18:26;101665.63;;;18.42;64.15
62126;BME280;48112;53.282;6.150;2022-08-21T00:19:28;101685.06;;;18.37;65.04
62126;BME280;48112;53.282;6.150;2022-08-21T00:20:32;101672.88;;;18.31;65.22
62126;BME280;48112;53.282;6.150;2022-08-21T00:21:35;101674.69;;;18.20;65.73
62126;BME280;48112;53.282;6.150;2022-08-21T00:22:38;101676.59;;;18.16;65.60
62126;BME280;48112;53.282;6.150;2022-08-21T00:23:40;101668.72;;;18.11;65.53
62126;BME280;48112;53.282;6.150;2022-08-21T00:24:43;101672.56;;;18.07;65.84
62126;BME280;48112;53.282;6.150;2022-08-21T00:25:45;101676.84;;;18.04;65.90
62126;BME280;48112;53.282;6.150;2022-08-21T00:26:49;101670.50;;;18.00;66.10
62126;BME280;48112;53.282;6.150;2022-08-21T00:27:51;101674.00;;;17.97;65.94
62126;BME280;48112;53.282;6.150;2022-08-21T00:28:54;101660.97;;;17.87;67.08
62126;BME280;48112;53.282;6.150;2022-08-21T00:30:00;101678.88;;;17.84;66.93
62126;BME280;48112;53.282;6.150;2022-08-21T00:31:03;101663.19;;;17.78;67.29
62126;BME280;48112;53.282;6.150;2022-08-21T00:32:05;101664.34;;;17.77;66.97
62126;BME280;48112;53.282;6.150;2022-08-21T00:33:09;101664.72;;;17.75;67.50
62126;BME280;48112;53.282;6.150;2022-08-21T00:34:12;101667.13;;;17.80;67.01
62126;BME280;48112;53.282;6.150;2022-08-21T00:35:18;101667.13;;;17.80;67.21
62126;BME280;48112;53.282;6.150;2022-08-21T00:36:20;101663.91;;;17.75;67.21
62126;BME280;48112;53.282;6.150;2022-08-21T00:37:23;101663.13;;;17.74;67.57
62126;BME280;48112;53.282;6.150;2022-08-21T00:38:25;101656.78;;;17.67;67.81
62126;BME280;48112;53.282;6.150;2022-08-21T00:39:28;101660.69;;;17.66;67.94
62126;BME280;48112;53.282;6.150;2022-08-21T00:40:32;101665.28;;;17.62;67.90
62126;BME280;48112;53.282;6.150;2022-08-21T00:41:37;101660.47;;;17.52;68.18
62126;BME280;48112;53.282;6.150;2022-08-21T00:42:40;101664.66;;;17.46;68.69
62126;BME280;48112;53.282;6.150;2022-08-21T00:43:49;101664.22;;;17.44;68.57
62126;BME280;48112;53.282;6.150;2022-08-21T00:44:52;101654.72;;;17.38;68.90
62126;BME280;48112;53.282;6.150;2022-08-21T00:45:57;101662.63;;;17.43;68.68
62126;BME280;48112;53.282;6.150;2022-08-21T00:46:59;101659.44;;;17.37;68.81
62126;BME280;48112;53.282;6.150;2022-08-21T00:48:03;101657.44;;;17.34;69.31
62126;BME280;48112;53.282;6.150;2022-08-21T00:49:05;101657.38;;;17.31;69.23
62126;BME280;48112;53.282;6.150;2022-08-21T00:50:10;101652.22;;;17.26;69.45
62126;BME280;48112;53.282;6.150;2022-08-21T00:51:25;101657.59;;;17.22;69.39
62126;BME280;48112;53.282;6.150;2022-08-21T00:52:32;101659.94;;;17.20;69.58
62126;BME280;48112;53.282;6.150;2022-08-21T00:53:37;101652.81;;;17.16;70.02
62126;BME280;48112;53.282;6.150;2022-08-21T00:54:42;101658.19;;;17.09;70.18
62126;BME280;48112;53.282;6.150;2022-08-21T00:55:48;101656.91;;;17.03;70.28
62126;BME280;48112;53.282;6.150;2022-08-21T00:56:54;101661.94;;;17.01;70.72
62126;BME280;48112;53.282;6.150;2022-08-21T00:58:01;101661.78;;;16.94;70.45
62126;BME280;48112;53.282;6.150;2022-08-21T00:59:05;101658.59;;;16.88;71.00
62126;BME280;48112;53.282;6.150;2022-08-21T01:00:11;101656.97;;;16.84;71.04
62126;BME280;48112;53.282;6.150;2022-08-21T01:01:16;101653.34;;;16.80;71.57
62126;BME280;48112;53.282;6.150;2022-08-21T01:02:20;101652.22;;;16.81;71.39
62126;BME280;48112;53.282;6.150;2022-08-21T01:03:24;101644.38;;;16.79;71.31
62126;BME280;48112;53.282;6.150;2022-08-21T01:04:27;101653.34;;;16.80;71.76
62126;BME280;48112;53.282;6.150;2022-08-21T01:05:29;101657.72;;;16.84;71.39
62126;BME280;48112;53.282;6.150;2022-08-21T01:06:32;101654.22;;;16.84;71.13
62126;BME280;48112;53.282;6.150;2022-08-21T01:07:34;101655.28;;;16.79;71.96
62126;BME280;48112;53.282;6.150;2022-08-21T01:08:38;101643.91;;;16.74;71.78
62126;BME280;48112;53.282;6.150;2022-08-21T01:09:47;101653.66;;;16.75;71.78
62126;BME280;48112;53.282;6.150;2022-08-21T01:10:52;101654.38;;;16.72;72.05
62126;BME280;48112;53.282;6.150;2022-08-21T01:11:59;101659.00;;;16.68;72.09
62126;BME280;48112;53.282;6.150;2022-08-21T01:13:04;101653.53;;;16.68;72.21
62126;BME280;48112;53.282;6.150;2022-08-21T01:14:08;101658.09;;;16.60;72.52
62126;BME280;48112;53.282;6.150;2022-08-21T01:15:14;101654.91;;;16.58;72.34
62126;BME280;48112;53.282;6.150;2022-08-21T01:16:20;101654.47;;;16.56;72.28
62126;BME280;48112;53.282;6.150;2022-08-21T01:17:24;101660.28;;;16.55;72.93
62126;BME280;48112;53.282;6.150;2022-08-21T01:18:28;101655.56;;;16.52;72.90
62126;BME280;48112;53.282;6.150;2022-08-21T01:19:31;101655.13;;;16.50;73.06
62126;BME280;48112;53.282;6.150;2022-08-21T01:20:34;101650.41;;;16.47;73.36
62126;BME280;48112;53.282;6.150;2022-08-21T01:21:38;101644.16;;;16.46;72.98
62126;BME280;48112;53.282;6.150;2022-08-21T01:22:40;101650.41;;;16.47;73.50
62126;BME280;48112;53.282;6.150;2022-08-21T01:23:45;101648.88;;;16.49;73.01
62126;BME280;48112;53.282;6.150;2022-08-21T01:24:47;101654.78;;;16.51;72.96
62126;BME280;48112;53.282;6.150;2022-08-21T01:25:51;101654.03;;;16.54;72.82
62126;BME280;48112;53.282;6.150;2022-08-21T01:26:53;101657.94;;;16.53;72.71
62126;BME280;48112;53.282;6.150;2022-08-21T01:27:59;101653.28;;;16.54;72.81
62126;BME280;48112;53.282;6.150;2022-08-21T01:29:08;101647.75;;;16.50;73.05
62126;BME280;48112;53.282;6.150;2022-08-21T01:30:14;101650.84;;;16.49;72.94
62126;BME280;48112;53.282;6.150;2022-08-21T01:31:19;101657.84;;;16.50;72.95
62126;BME280;48112;53.282;6.150;2022-08-21T01:32:27;101657.41;;;16.48;72.86
62126;BME280;48112;53.282;6.150;2022-08-21T01:33:29;101651.59;;;16.49;72.88
62126;BME280;48112;53.282;6.150;2022-08-21T01:34:32;101646.94;;;16.50;72.96
62126;BME280;48112;53.282;6.150;2022-08-21T01:35:35;101654.69;;;16.48;73.05
62126;BME280;48112;53.282;6.150;2022-08-21T01:36:39;101659.38;;;16.47;73.49
62126;BME280;48112;53.282;6.150;2022-08-21T01:37:42;101650.75;;;16.45;73.21
62126;BME280;48112;53.282;6.150;2022-08-21T01:38:45;101649.97;;;16.44;73.36
62126;BME280;48112;53.282;6.150;2022-08-21T01:39:48;101650.28;;;16.43;73.20
62126;BME280;48112;53.282;6.150;2022-08-21T01:40:51;101651.38;;;16.38;73.29
62126;BME280;48112;53.282;6.150;2022-08-21T01:41:58;101648.22;;;16.36;73.69
62126;BME280;48112;53.282;6.150;2022-08-21T01:43:00;101642.00;;;16.36;74.09
62126;BME280;48112;53.282;6.150;2022-08-21T01:44:04;101643.19;;;16.38;73.64
62126;BME280;48112;53.282;6.150;2022-08-21T01:45:08;101642.03;;;16.39;73.58
62126;BME280;48112;53.282;6.150;2022-08-21T01:46:11;101639.31;;;16.39;74.06
62126;BME280;48112;53.282;6.150;2022-08-21T01:47:15;101645.22;;;16.41;73.78
62126;BME280;48112;53.282;6.150;2022-08-21T01:48:19;101640.13;;;16.40;73.49
62126;BME280;48112;53.282;6.150;2022-08-21T01:49:22;101641.63;;;16.37;74.39
62126;BME280;48112;53.282;6.150;2022-08-21T01:50:24;101643.56;;;16.37;73.96
62126;BME280;48112;53.282;6.150;2022-08-21T01:51:27;101643.50;;;16.33;74.25
62126;BME280;48112;53.282;6.150;2022-08-21T01:52:31;101642.03;;;16.39;73.42
62126;BME280;48112;53.282;6.150;2022-08-21T01:53:35;101639.69;;;16.38;74.16
62126;BME280;48112;53.282;6.150;2022-08-21T01:54:38;101635.03;;;16.38;73.84
62126;BME280;48112;53.282;6.150;2022-08-21T01:55:41;101636.59;;;16.39;73.93
62126;BME280;48112;53.282;6.150;2022-08-21T01:56:46;101637.75;;;16.38;74.34
62126;BME280;48112;53.282;6.150;2022-08-21T01:57:49;101639.28;;;16.36;74.27
62126;BME280;48112;53.282;6.150;2022-08-21T01:58:51;101633.75;;;16.32;74.38
62126;BME280;48112;53.282;6.150;2022-08-21T01:59:54;101634.19;;;16.34;74.13
62126;BME280;48112;53.282;6.150;2022-08-21T02:00:56;101634.59;;;16.36;74.26
62126;BME280;48112;53.282;6.150;2022-08-21T02:01:59;101636.09;;;16.34;74.24
62126;BME280;48112;53.282;6.150;2022-08-21T02:03:01;101634.19;;;16.34;74.21
62126;BME280;48112;53.282;6.150;2022-08-21T02:04:05;101636.47;;;16.32;74.17
62126;BME280;48112;53.282;6.150;2022-08-21T02:05:08;101635.31;;;16.33;74.34
62126;BME280;48112;53.282;6.150;2022-08-21T02:06:13;101632.59;;;16.33;74.21
62126;BME280;48112;53.282;6.150;2022-08-21T02:07:16;101633.75;;;16.32;74.25
62126;BME280;48112;53.282;6.150;2022-08-21T02:08:21;101633.75;;;16.32;74.34
62126;BME280;48112;53.282;6.150;2022-08-21T02:09:24;101620.84;;;16.29;74.83
62126;BME280;48112;53.282;6.150;2022-08-21T02:10:29;101627.50;;;16.32;74.45
62126;BME280;48112;53.282;6.150;2022-08-21T02:11:32;101629.44;;;16.31;74.44
62126;BME280;48112;53.282;6.150;2022-08-21T02:12:36;101625.56;;;16.32;74.17
62126;BME280;48112;53.282;6.150;2022-08-21T02:13:38;101620.13;;;16.32;74.29
62126;BME280;48112;53.282;6.150;2022-08-21T02:14:41;101627.84;;;16.30;74.16
62126;BME280;48112;53.282;6.150;2022-08-21T02:15:43;101616.13;;;16.26;74.56
62126;BME280;48112;53.282;6.150;2022-08-21T02:16:46;101619.56;;;16.23;74.70
62126;BME280;48112;53.282;6.150;2022-08-21T02:17:53;101618.41;;;16.24;74.86
62126;BME280;48112;53.282;6.150;2022-08-21T02:18:56;101616.03;;;16.23;74.87
62126;BME280;48112;53.282;6.150;2022-08-21T02:19:58;101612.16;;;16.24;74.66
62126;BME280;48112;53.282;6.150;2022-08-21T02:21:01;101611.38;;;16.23;75.20
62126;BME280;48112;53.282;6.150;2022-08-21T02:22:03;101614.09;;;16.23;75.16
62126;BME280;48112;53.282;6.150;2022-08-21T02:23:08;101610.22;;;16.24;74.88
62126;BME280;48112;53.282;6.150;2022-08-21T02:24:12;101609.78;;;16.22;75.18
62126;BME280;48112;53.282;6.150;2022-08-21T02:25:16;101616.03;;;16.23;74.90
62126;BME280;48112;53.282;6.150;2022-08-21T02:26:18;101604.34;;;16.22;75.25
62126;BME280;48112;53.282;6.150;2022-08-21T02:27:22;101612.50;;;16.22;75.21
62126;BME280;48112;53.282;6.150;2022-08-21T02:28:27;101604.34;;;16.22;75.21
62126;BME280;48112;53.282;6.150;2022-08-21T02:29:30;101607.94;;;16.26;75.03
62126;BME280;48112;53.282;6.150;2022-08-21T02:30:35;101609.50;;;16.27;74.87
62126;BME280;48112;53.282;6.150;2022-08-21T02:31:39;101607.50;;;16.24;75.23
62126;BME280;48112;53.282;6.150;2022-08-21T02:32:41;101607.50;;;16.24;74.97
62126;BME280;48112;53.282;6.150;2022-08-21T02:33:44;101610.94;;;16.21;75.09
62126;BME280;48112;53.282;6.150;2022-08-21T02:34:47;101613.69;;;16.21;75.40
62126;BME280;48112;53.282;6.150;2022-08-21T02:35:51;101608.16;;;16.18;75.49
62126;BME280;48112;53.282;6.150;2022-08-21T02:36:54;101609.72;;;16.19;75.54
62126;BME280;48112;53.282;6.150;2022-08-21T02:38:04;101607.34;;;16.17;75.49
62126;BME280;48112;53.282;6.150;2022-08-21T02:39:07;101600.69;;;16.15;75.87
62126;BME280;48112;53.282;6.150;2022-08-21T02:40:13;101605.78;;;16.16;75.54
62126;BME280;48112;53.282;6.150;2022-08-21T02:41:18;101604.63;;;16.17;75.80
62126;BME280;48112;53.282;6.150;2022-08-21T02:42:23;101604.63;;;16.17;75.83
62126;BME280;48112;53.282;6.150;2022-08-21T02:43:26;101607.00;;;16.19;75.85
62126;BME280;48112;53.282;6.150;2022-08-21T02:44:29;101603.50;;;16.18;75.78
62126;BME280;48112;53.282;6.150;2022-08-21T02:45:36;101608.16;;;16.18;76.09
62126;BME280;48112;53.282;6.150;2022-08-21T02:46:39;101605.06;;;16.19;75.76
62126;BME280;48112;53.282;6.150;2022-08-21T02:47:47;101601.97;;;16.21;75.36
62126;BME280;48112;53.282;6.150;2022-08-21T02:48:50;101596.53;;;16.21;75.72
62126;BME280;48112;53.282;6.150;2022-08-21T02:49:52;101600.84;;;16.22;75.70
62126;BME280;48112;53.282;6.150;2022-08-21T02:50:57;101602.78;;;16.21;75.55
62126;BME280;48112;53.282;6.150;2022-08-21T02:51:59;101601.91;;;16.17;75.84
62126;BME280;48112;53.282;6.150;2022-08-21T02:53:04;101596.44;;;16.17;75.86
62126;BME280;48112;53.282;6.150;2022-08-21T02:54:07;101600.34;;;16.16;76.03
62126;BME280;48112;53.282;6.150;2022-08-21T02:55:11;101597.59;;;16.16;75.63
62126;BME280;48112;53.282;6.150;2022-08-21T02:56:16;101594.88;;;16.16;75.88
62126;BME280;48112;53.282;6.150;2022-08-21T02:57:20;101592.59;;;16.18;75.29
62126;BME280;48112;53.282;6.150;2022-08-21T02:58:24;101589.88;;;16.18;75.83
62126;BME280;48112;53.282;6.150;2022-08-21T02:59:28;101588.59;;;16.12;76.04
62126;BME280;48112;53.282;6.150;2022-08-21T03:00:31;101591.69;;;16.11;75.92
62126;BME280;48112;53.282;6.150;2022-08-21T03:01:34;101589.28;;;16.09;76.14
62126;BME280;48112;53.282;6.150;2022-08-21T03:02:38;101587.72;;;16.08;76.11
62126;BME280;48112;53.282;6.150;2022-08-21T03:03:43;101586.91;;;16.08;76.10
62126;BME280;48112;53.282;6.150;2022-08-21T03:04:45;101588.88;;;16.07;75.98
62126;BME280;48112;53.282;6.150;2022-08-21T03:05:48;101588.00;;;16.03;76.30
62126;BME280;48112;53.282;6.150;2022-08-21T03:06:51;101584.44;;;15.99;76.53
62126;BME280;48112;53.282;6.150;2022-08-21T03:07:54;101584.34;;;15.96;76.29
62126;BME280;48112;53.282;6.150;2022-08-21T03:08:57;101578.81;;;15.92;76.93
62126;BME280;48112;53.282;6.150;2022-08-21T03:10:00;101587.34;;;15.91;76.93
62126;BME280;48112;53.282;6.150;2022-08-21T03:11:04;101578.81;;;15.92;76.60
62126;BME280;48112;53.282;6.150;2022-08-21T03:12:11;101576.38;;;15.87;76.92
62126;BME280;48112;53.282;6.150;2022-08-21T03:13:13;101579.09;;;15.87;76.85
62126;BME280;48112;53.282;6.150;2022-08-21T03:14:17;101580.25;;;15.86;77.08
62126;BME280;48112;53.282;6.150;2022-08-21T03:15:21;101580.19;;;15.83;77.12
62126;BME280;48112;53.282;6.150;2022-08-21T03:16:25;101570.72;;;15.77;77.14
62126;BME280;48112;53.282;6.150;2022-08-21T03:17:27;101576.53;;;15.75;77.16
62126;BME280;48112;53.282;6.150;2022-08-21T03:18:31;101574.53;;;15.72;77.45
62126;BME280;48112;53.282;6.150;2022-08-21T03:19:33;101572.78;;;15.64;77.87
62126;BME280;48112;53.282;6.150;2022-08-21T03:20:37;101575.06;;;15.62;77.95
62126;BME280;48112;53.282;6.150;2022-08-21T03:21:40;101571.91;;;15.60;77.76
62126;BME280;48112;53.282;6.150;2022-08-21T03:22:43;101575.34;;;15.57;77.98
62126;BME280;48112;53.282;6.150;2022-08-21T03:23:53;101580.75;;;15.38;78.41
62126;BME280;48112;53.282;6.150;2022-08-21T03:24:57;101582.50;;;15.46;78.42
62126;BME280;48112;53.282;6.150;2022-08-21T03:25:59;101588.81;;;15.50;78.09
62126;BME280;48112;53.282;6.150;2022-08-21T03:27:03;101583.38;;;15.50;77.93
62126;BME280;48112;53.282;6.150;2022-08-21T03:28:12;101576.28;;;15.46;78.04
62126;BME280;48112;53.282;6.150;2022-08-21T03:29:16;101583.19;;;15.43;78.13
62126;BME280;48112;53.282;6.150;2022-08-21T03:30:20;101578.56;;;15.44;78.17
62126;BME280;48112;53.282;6.150;2022-08-21T03:31:24;101578.47;;;15.40;78.73
62126;BME280;48112;53.282;6.150;2022-08-21T03:32:28;101573.72;;;15.37;78.44
62126;BME280;48112;53.282;6.150;2022-08-21T03:33:33;101571.34;;;15.36;78.38
62126;BME280;48112;53.282;6.150;2022-08-21T03:34:35;101569.06;;;15.38;78.57
62126;BME280;48112;53.282;6.150;2022-08-21T03:35:38;101569.44;;;15.36;78.45
62126;BME280;48112;53.282;6.150;2022-08-21T03:36:42;101574.88;;;15.36;78.48
62126;BME280;48112;53.282;6.150;2022-08-21T03:37:46;101567.81;;;15.35;78.59
62126;BME280;48112;53.282;6.150;2022-08-21T03:38:48;101569.78;;;15.35;78.90
62126;BME280;48112;53.282;6.150;2022-08-21T03:39:52;101563.09;;;15.32;78.76
62126;BME280;48112;53.282;6.150;2022-08-21T03:40:54;101568.53;;;15.32;78.12
62126;BME280;48112;53.282;6.150;2022-08-21T03:41:57;101567.41;;;15.33;78.69
62126;BME280;48112;53.282;6.150;2022-08-21T03:43:02;101569.69;;;15.31;78.84
62126;BME280;48112;53.282;6.150;2022-08-21T03:44:06;101565.81;;;15.32;78.64
62126;BME280;48112;53.282;6.150;2022-08-21T03:45:09;101563.09;;;15.32;78.72
62126;BME280;48112;53.282;6.150;2022-08-21T03:46:12;101570.50;;;15.32;78.38
62126;BME280;48112;53.282;6.150;2022-08-21T03:47:15;101566.53;;;15.29;78.69
62126;BME280;48112;53.282;6.150;2022-08-21T03:48:19;101563.38;;;15.27;78.74
62126;BME280;48112;53.282;6.150;2022-08-21T03:49:21;101566.88;;;15.28;78.71
62126;BME280;48112;53.282;6.150;2022-08-21T03:50:27;101560.66;;;15.27;78.83
62126;BME280;48112;53.282;6.150;2022-08-21T03:51:30;101567.25;;;15.26;78.73
62126;BME280;48112;53.282;6.150;2022-08-21T03:52:36;101554.00;;;15.25;79.25
62126;BME280;48112;53.282;6.150;2022-08-21T03:53:38;101567.25;;;15.26;78.79
62126;BME280;48112;53.282;6.150;2022-08-21T03:54:42;101564.88;;;15.25;79.13
62126;BME280;48112;53.282;6.150;2022-08-21T03:55:45;101571.13;;;15.25;78.81
62126;BME280;48112;53.282;6.150;2022-08-21T03:56:49;101562.50;;;15.23;78.80
62126;BME280;48112;53.282;6.150;2022-08-21T03:57:53;101566.78;;;15.24;79.10
62126;BME280;48112;53.282;6.150;2022-08-21T03:58:58;101559.78;;;15.23;78.91
62126;BME280;48112;53.282;6.150;2022-08-21T04:00:07;101567.16;;;15.23;79.15
62126;BME280;48112;53.282;6.150;2022-08-21T04:01:13;101559.78;;;15.23;78.50
62126;BME280;48112;53.282;6.150;2022-08-21T04:02:20;101566.38;;;15.22;79.22
62126;BME280;48112;53.282;6.150;2022-08-21T04:03:25;101560.94;;;15.22;78.94
62126;BME280;48112;53.282;6.150;2022-08-21T04:04:33;101568.66;;;15.20;78.99
62126;BME280;48112;53.282;6.150;2022-08-21T04:05:46;101575.59;;;15.18;79.07
62126;BME280;48112;53.282;6.150;2022-08-21T04:06:52;101567.88;;;15.20;79.07
62126;BME280;48112;53.282;6.150;2022-08-21T04:07:57;101565.16;;;15.20;79.22
62126;BME280;48112;53.282;6.150;2022-08-21T04:09:05;101563.94;;;15.17;79.22
62126;BME280;48112;53.282;6.150;2022-08-21T04:10:09;101563.94;;;15.17;79.03
62126;BME280;48112;53.282;6.150;2022-08-21T04:11:13;101565.06;;;15.16;79.27
62126;BME280;48112;53.282;6.150;2022-08-21T04:12:21;101563.03;;;15.13;79.07
62126;BME280;48112;53.282;6.150;2022-08-21T04:13:27;101567.28;;;15.11;79.21
62126;BME280;48112;53.282;6.150;2022-08-21T04:14:37;101565.31;;;15.11;79.20
62126;BME280;48112;53.282;6.150;2022-08-21T04:15:50;101559.47;;;15.09;79.39
62126;BME280;48112;53.282;6.150;2022-08-21T04:16:53;101564.09;;;15.09;79.75
62126;BME280;48112;53.282;6.150;2022-08-21T04:17:56;101557.09;;;15.08;79.81
62126;BME280;48112;53.282;6.150;2022-08-21T04:19:00;101565.25;;;15.08;79.53
62126;BME280;48112;53.282;6.150;2022-08-21T04:20:05;101561.75;;;15.07;79.86
62126;BME280;48112;53.282;6.150;2022-08-21T04:21:10;101561.75;;;15.07;79.41
62126;BME280;48112;53.282;6.150;2022-08-21T04:22:15;101555.09;;;15.05;79.86
62126;BME280;48112;53.282;6.150;2022-08-21T04:23:19;101556.66;;;15.06;79.85
62126;BME280;48112;53.282;6.150;2022-08-21T04:24:26;101558.94;;;15.03;79.65
62126;BME280;48112;53.282;6.150;2022-08-21T04:25:30;101562.91;;;15.06;79.70
62126;BME280;48112;53.282;6.150;2022-08-21T04:26:34;101564.47;;;15.07;79.51
62126;BME280;48112;53.282;6.150;2022-08-21T04:27:36;101561.28;;;15.05;79.66
62126;BME280;48112;53.282;6.150;2022-08-21T04:28:41;101560.16;;;15.06;79.91
62126;BME280;48112;53.282;6.150;2022-08-21T04:29:46;101564.81;;;15.06;80.16
62126;BME280;48112;53.282;6.150;2022-08-21T04:30:48;101569.44;;;15.05;79.80
62126;BME280;48112;53.282;6.150;2022-08-21T04:31:52;101567.88;;;15.04;79.67
62126;BME280;48112;53.282;6.150;2022-08-21T04:32:55;101566.72;;;15.05;79.82
62126;BME280;48112;53.282;6.150;2022-08-21T04:33:59;101560.09;;;15.02;79.81
62126;BME280;48112;53.282;6.150;2022-08-21T04:35:03;101559.38;;;15.06;79.77
62126;BME280;48112;53.282;6.150;2022-08-21T04:36:07;101567.09;;;15.03;79.86
62126;BME280;48112;53.282;6.150;2022-08-21T04:37:09;101555.00;;;15.01;79.88
62126;BME280;48112;53.282;6.150;2022-08-21T04:38:12;101562.44;;;15.04;79.84
62126;BME280;48112;53.282;6.150;2022-08-21T04:39:14;101560.53;;;15.05;79.96
62126;BME280;48112;53.282;6.150;2022-08-21T04:40:19;101560.88;;;15.03;80.05
62126;BME280;48112;53.282;6.150;2022-08-21T04:41:21;101560.53;;;15.05;80.02
62126;BME280;48112;53.282;6.150;2022-08-21T04:42:29;101553.41;;;15.00;80.05
62126;BME280;48112;53.282;6.150;2022-08-21T04:43:31;101566.72;;;15.05;79.90
62126;BME280;48112;53.282;6.150;2022-08-21T04:44:34;101559.03;;;15.07;79.78
62126;BME280;48112;53.282;6.150;2022-08-21T04:45:39;101556.31;;;15.07;79.64
62126;BME280;48112;53.282;6.150;2022-08-21T04:46:43;101554.38;;;15.08;79.66
62126;BME280;48112;53.282;6.150;2022-08-21T04:47:45;101555.94;;;15.09;79.99
62126;BME280;48112;53.282;6.150;2022-08-21T04:48:54;101556.75;;;15.09;79.53
62126;BME280;48112;53.282;6.150;2022-08-21T04:49:57;101555.59;;;15.10;79.62
62126;BME280;48112;53.282;6.150;2022-08-21T04:51:02;101556.84;;;15.13;80.15
62126;BME280;48112;53.282;6.150;2022-08-21T04:52:08;101557.50;;;15.10;79.82
62126;BME280;48112;53.282;6.150;2022-08-21T04:53:14;101553.66;;;15.11;80.06
62126;BME280;48112;53.282;6.150;2022-08-21T04:54:20;101562.59;;;15.11;80.13
62126;BME280;48112;53.282;6.150;2022-08-21T04:55:24;101554.44;;;15.11;79.99
62126;BME280;48112;53.282;6.150;2022-08-21T04:56:29;101562.28;;;15.13;80.09
62126;BME280;48112;53.282;6.150;2022-08-21T04:57:33;101550.59;;;15.12;79.95
62126;BME280;48112;53.282;6.150;2022-08-21T04:58:50;101561.47;;;15.12;80.20
62126;BME280;48112;53.282;6.150;2022-08-21T04:59:54;101558.03;;;15.15;80.14
62126;BME280;48112;53.282;6.150;2022-08-21T05:01:00;101555.78;;;15.17;79.82
62126;BME280;48112;53.282;6.150;2022-08-21T05:02:05;101555.41;;;15.19;79.89
62126;BME280;48112;53.282;6.150;2022-08-21T05:03:09;101563.22;;;15.20;79.98
62126;BME280;48112;53.282;6.150;2022-08-21T05:04:14;101570.22;;;15.21;80.31
62126;BME280;48112;53.282;6.150;2022-08-21T05:05:19;101558.53;;;15.21;80.24
62126;BME280;48112;53.282;6.150;2022-08-21T05:06:22;101561.72;;;15.23;80.36
62126;BME280;48112;53.282;6.150;2022-08-21T05:07:28;101564.06;;;15.24;80.36
62126;BME280;48112;53.282;6.150;2022-08-21T05:08:45;101557.78;;;15.20;80.86
62126;BME280;48112;53.282;6.150;2022-08-21T05:09:49;101563.66;;;15.22;80.80
62126;BME280;48112;53.282;6.150;2022-08-21T05:10:52;101556.28;;;15.23;80.45
62126;BME280;48112;53.282;6.150;2022-08-21T05:12:01;101560.94;;;15.22;80.38
62126;BME280;48112;53.282;6.150;2022-08-21T05:13:06;101563.38;;;15.27;80.59
62126;BME280;48112;53.282;6.150;2022-08-21T05:14:08;101562.59;;;15.27;80.74
62126;BME280;48112;53.282;6.150;2022-08-21T05:15:12;101559.09;;;15.26;80.48
62126;BME280;48112;53.282;6.150;2022-08-21T05:16:16;101561.44;;;15.28;80.72
62126;BME280;48112;53.282;6.150;2022-08-21T05:17:38;101562.94;;;15.25;80.84
62126;BME280;48112;53.282;6.150;2022-08-21T05:18:40;101563.38;;;15.27;80.94
62126;BME280;48112;53.282;6.150;2022-08-21T05:19:43;101560.66;;;15.27;81.59
62126;BME280;48112;53.282;6.150;2022-08-21T05:20:45;101561.09;;;15.29;81.21
62126;BME280;48112;53.282;6.150;2022-08-21T05:21:48;101565.38;;;15.30;81.46
62126;BME280;48112;53.282;6.150;2022-08-21T05:22:50;101559.16;;;15.30;81.17
62126;BME280;48112;53.282;6.150;2022-08-21T05:23:53;101564.69;;;15.33;81.42
62126;BME280;48112;53.282;6.150;2022-08-21T05:24:56;101575.94;;;15.32;81.46
62126;BME280;48112;53.282;6.150;2022-08-21T05:26:00;101561.53;;;15.31;81.77
62126;BME280;48112;53.282;6.150;2022-08-21T05:27:02;101561.97;;;15.33;81.85
62126;BME280;48112;53.282;6.150;2022-08-21T05:28:05;101566.69;;;15.36;81.45
62126;BME280;48112;53.282;6.150;2022-08-21T05:29:08;101572.22;;;15.40;81.26
62126;BME280;48112;53.282;6.150;2022-08-21T05:30:13;101580.06;;;15.41;81.44
62126;BME280;48112;53.282;6.150;2022-08-21T05:31:17;101577.03;;;15.46;81.37
62126;BME280;48112;53.282;6.150;2022-08-21T05:32:19;101574.41;;;15.50;81.43
62126;BME280;48112;53.282;6.150;2022-08-21T05:33:22;101567.91;;;15.54;81.26
62126;BME280;48112;53.282;6.150;2022-08-21T05:34:25;101571.50;;;15.58;81.56
62126;BME280;48112;53.282;6.150;2022-08-21T05:35:28;101568.91;;;15.65;80.89